Terminal Aerodrome Forecast
Issued by NWS Cleveland, OH

Home | Current Version | Previous Version | Text Only | Print | Product List | Glossary Off
Versions: 1 2 3 4 5 6 7 8 9 10 11 12 13 14 15 16 17 18 19

000
FTUS41 KCLE 272000 AAB
TAFMFD
TAF AMD
KMFD 272019Z 2720/2818 33010KT 3SM -SN SCT015 OVC025
      TEMPO 2720/2723 1 1/2SM -SN OVC015
     FM280100 34010KT P6SM OVC030
     FM280900 35010KT P6SM BKN030
     FM281500 35010KT P6SM SCT030 BKN035=

USA.gov is the U.S. government's official web portal to all federal, state and local government web resources and services.